sensor_id;sensor_type;location;lat;lon;timestamp;pressure;altitude;pressure_sealevel;temperature;humidity
47080;BME280;33067;49.296;14.470;2023-12-20T00:01:27;96713.33;;;7.35;41.69
47080;BME280;33067;49.296;14.470;2023-12-20T00:03:52;96716.39;;;7.77;41.44
47080;BME280;33067;49.296;14.470;2023-12-20T00:06:18;96712.95;;;7.51;41.83
47080;BME280;33067;49.296;14.470;2023-12-20T00:08:43;96706.45;;;7.69;41.30
47080;BME280;33067;49.296;14.470;2023-12-20T00:11:08;96703.20;;;7.24;42.46
47080;BME280;33067;49.296;14.470;2023-12-20T00:13:34;96699.56;;;7.38;42.07
47080;BME280;33067;49.296;14.470;2023-12-20T00:16:00;96697.05;;;7.41;41.90
47080;BME280;33067;49.296;14.470;2023-12-20T00:18:25;96697.50;;;7.11;42.23
47080;BME280;33067;49.296;14.470;2023-12-20T00:20:51;96687.16;;;7.47;40.59
47080;BME280;33067;49.296;14.470;2023-12-20T00:23:16;96683.14;;;7.60;40.28
47080;BME280;33067;49.296;14.470;2023-12-20T00:25:42;96688.03;;;7.65;40.85
47080;BME280;33067;49.296;14.470;2023-12-20T00:28:06;96695.13;;;7.50;40.84
47080;BME280;33067;49.296;14.470;2023-12-20T00:30:32;96704.26;;;7.55;40.85
47080;BME280;33067;49.296;14.470;2023-12-20T00:32:57;96702.68;;;7.75;39.55
47080;BME280;33067;49.296;14.470;2023-12-20T00:35:22;96706.66;;;7.74;38.65
47080;BME280;33067;49.296;14.470;2023-12-20T00:37:47;96702.57;;;7.70;39.71
47080;BME280;33067;49.296;14.470;2023-12-20T00:40:13;96701.79;;;7.55;40.11
47080;BME280;33067;49.296;14.470;2023-12-20T00:42:38;96695.81;;;7.62;40.52
47080;BME280;33067;49.296;14.470;2023-12-20T00:45:04;96694.37;;;7.93;40.61
47080;BME280;33067;49.296;14.470;2023-12-20T00:47:29;96685.30;;;7.78;40.82
47080;BME280;33067;49.296;14.470;2023-12-20T00:49:54;96677.09;;;7.76;40.82
47080;BME280;33067;49.296;14.470;2023-12-20T00:52:19;96678.58;;;7.87;40.98
47080;BME280;33067;49.296;14.470;2023-12-20T00:54:45;96669.75;;;7.97;40.79
47080;BME280;33067;49.296;14.470;2023-12-20T00:57:11;96667.24;;;8.05;40.31
47080;BME280;33067;49.296;14.470;2023-12-20T00:59:36;96657.49;;;8.23;40.41
47080;BME280;33067;49.296;14.470;2023-12-20T01:02:02;96664.00;;;8.01;40.71
47080;BME280;33067;49.296;14.470;2023-12-20T01:04:27;96664.96;;;7.85;40.86
47080;BME280;33067;49.296;14.470;2023-12-20T01:06:54;96662.26;;;8.18;40.90
47080;BME280;33067;49.296;14.470;2023-12-20T01:09:18;96659.68;;;8.00;41.04
47080;BME280;33067;49.296;14.470;2023-12-20T01:11:44;96652.89;;;8.24;40.99
47080;BME280;33067;49.296;14.470;2023-12-20T01:14:09;96654.86;;;7.96;40.99
47080;BME280;33067;49.296;14.470;2023-12-20T01:16:34;96651.92;;;8.24;40.96
47080;BME280;33067;49.296;14.470;2023-12-20T01:19:00;96648.52;;;8.23;41.12
47080;BME280;33067;49.296;14.470;2023-12-20T01:21:25;96651.55;;;7.67;41.41
47080;BME280;33067;49.296;14.470;2023-12-20T01:23:50;96644.59;;;7.81;41.53
47080;BME280;33067;49.296;14.470;2023-12-20T01:26:16;96641.62;;;7.86;41.25
47080;BME280;33067;49.296;14.470;2023-12-20T01:28:42;96638.87;;;7.85;40.75
47080;BME280;33067;49.296;14.470;2023-12-20T01:31:08;96625.64;;;8.17;40.50
47080;BME280;33067;49.296;14.470;2023-12-20T01:33:32;96620.92;;;8.42;40.24
47080;BME280;33067;49.296;14.470;2023-12-20T01:35:58;96613.94;;;8.20;40.25
47080;BME280;33067;49.296;14.470;2023-12-20T01:38:23;96603.96;;;7.85;40.31
47080;BME280;33067;49.296;14.470;2023-12-20T01:40:49;96610.13;;;7.70;40.41
47080;BME280;33067;49.296;14.470;2023-12-20T01:43:14;96605.35;;;8.04;40.24
47080;BME280;33067;49.296;14.470;2023-12-20T01:45:40;96595.26;;;7.75;40.31
47080;BME280;33067;49.296;14.470;2023-12-20T01:48:07;96595.37;;;7.73;40.58
47080;BME280;33067;49.296;14.470;2023-12-20T01:50:31;96593.12;;;8.10;40.50
47080;BME280;33067;49.296;14.470;2023-12-20T01:52:57;96580.84;;;8.01;40.84
47080;BME280;33067;49.296;14.470;2023-12-20T01:55:21;96587.04;;;7.77;40.76
47080;BME280;33067;49.296;14.470;2023-12-20T01:57:47;96603.21;;;8.05;40.74
47080;BME280;33067;49.296;14.470;2023-12-20T02:00:13;96608.52;;;8.17;40.57
47080;BME280;33067;49.296;14.470;2023-12-20T02:02:39;96600.32;;;8.03;40.44
47080;BME280;33067;49.296;14.470;2023-12-20T02:05:02;96594.84;;;8.23;40.81
47080;BME280;33067;49.296;14.470;2023-12-20T02:07:28;96598.38;;;8.05;40.80
47080;BME280;33067;49.296;14.470;2023-12-20T02:09:53;96596.25;;;8.02;40.92
47080;BME280;33067;49.296;14.470;2023-12-20T02:12:19;96586.59;;;8.39;40.90
47080;BME280;33067;49.296;14.470;2023-12-20T02:14:44;96596.53;;;8.22;40.95
47080;BME280;33067;49.296;14.470;2023-12-20T02:17:09;96605.26;;;8.15;40.22
47080;BME280;33067;49.296;14.470;2023-12-20T02:19:35;96605.66;;;8.13;40.37
47080;BME280;33067;49.296;14.470;2023-12-20T02:22:08;96601.58;;;8.12;39.99
47080;BME280;33067;49.296;14.470;2023-12-20T02:24:26;96599.30;;;8.15;39.98
47080;BME280;33067;49.296;14.470;2023-12-20T02:26:52;96606.39;;;8.22;40.18
47080;BME280;33067;49.296;14.470;2023-12-20T02:29:17;96609.38;;;8.14;40.48
47080;BME280;33067;49.296;14.470;2023-12-20T02:31:42;96607.43;;;8.47;41.36
47080;BME280;33067;49.296;14.470;2023-12-20T02:34:08;96605.56;;;7.85;42.25
47080;BME280;33067;49.296;14.470;2023-12-20T02:36:33;96598.05;;;7.97;42.59
47080;BME280;33067;49.296;14.470;2023-12-20T02:38:59;96598.42;;;7.93;42.90
47080;BME280;33067;49.296;14.470;2023-12-20T02:41:24;96591.90;;;7.79;43.97
47080;BME280;33067;49.296;14.470;2023-12-20T02:43:50;96588.13;;;8.35;43.79
47080;BME280;33067;49.296;14.470;2023-12-20T02:46:16;96581.49;;;7.85;44.96
47080;BME280;33067;49.296;14.470;2023-12-20T02:48:41;96584.30;;;7.59;45.10
47080;BME280;33067;49.296;14.470;2023-12-20T02:51:07;96581.66;;;7.95;44.92
47080;BME280;33067;49.296;14.470;2023-12-20T02:53:32;96568.71;;;7.66;46.08
47080;BME280;33067;49.296;14.470;2023-12-20T02:55:58;96566.97;;;7.71;45.92
47080;BME280;33067;49.296;14.470;2023-12-20T02:58:23;96565.11;;;8.02;45.47
47080;BME280;33067;49.296;14.470;2023-12-20T03:00:48;96557.28;;;8.23;45.16
47080;BME280;33067;49.296;14.470;2023-12-20T03:03:13;96551.70;;;8.33;45.19
47080;BME280;33067;49.296;14.470;2023-12-20T03:05:38;96545.84;;;7.88;46.82
47080;BME280;33067;49.296;14.470;2023-12-20T03:08:05;96542.95;;;7.68;47.62
47080;BME280;33067;49.296;14.470;2023-12-20T03:13:00;96536.04;;;7.44;48.39
47080;BME280;33067;49.296;14.470;2023-12-20T03:15:26;96536.20;;;7.93;47.97
47080;BME280;33067;49.296;14.470;2023-12-20T03:17:51;96534.32;;;7.30;48.87
47080;BME280;33067;49.296;14.470;2023-12-20T03:20:17;96529.65;;;7.91;48.42
47080;BME280;33067;49.296;14.470;2023-12-20T03:22:43;96534.00;;;8.04;48.00
47080;BME280;33067;49.296;14.470;2023-12-20T03:25:08;96536.97;;;8.06;47.38
47080;BME280;33067;49.296;14.470;2023-12-20T03:27:33;96542.21;;;8.49;47.03
47080;BME280;33067;49.296;14.470;2023-12-20T03:29:59;96544.68;;;8.58;46.96
47080;BME280;33067;49.296;14.470;2023-12-20T03:32:24;96542.89;;;8.76;46.66
47080;BME280;33067;49.296;14.470;2023-12-20T03:34:50;96547.94;;;8.69;46.46
47080;BME280;33067;49.296;14.470;2023-12-20T03:37:15;96545.03;;;8.65;45.99
47080;BME280;33067;49.296;14.470;2023-12-20T03:39:40;96544.09;;;9.02;46.11
47080;BME280;33067;49.296;14.470;2023-12-20T03:42:06;96533.04;;;9.03;46.00
47080;BME280;33067;49.296;14.470;2023-12-20T03:44:31;96530.69;;;8.32;46.39
47080;BME280;33067;49.296;14.470;2023-12-20T03:46:57;96529.09;;;8.67;46.85
47080;BME280;33067;49.296;14.470;2023-12-20T03:49:22;96535.78;;;7.52;48.83
47080;BME280;33067;49.296;14.470;2023-12-20T03:51:47;96537.71;;;7.68;48.43
47080;BME280;33067;49.296;14.470;2023-12-20T03:54:13;96543.51;;;8.06;47.79
47080;BME280;33067;49.296;14.470;2023-12-20T03:56:38;96544.34;;;8.25;47.38
47080;BME280;33067;49.296;14.470;2023-12-20T03:59:04;96542.27;;;7.92;47.59
47080;BME280;33067;49.296;14.470;2023-12-20T04:01:29;96540.92;;;7.87;47.75
47080;BME280;33067;49.296;14.470;2023-12-20T04:03:55;96538.19;;;8.26;47.37
47080;BME280;33067;49.296;14.470;2023-12-20T04:06:20;96539.50;;;7.95;47.67
47080;BME280;33067;49.296;14.470;2023-12-20T04:08:46;96544.05;;;8.46;47.18
47080;BME280;33067;49.296;14.470;2023-12-20T04:11:11;96550.44;;;8.37;47.39
47080;BME280;33067;49.296;14.470;2023-12-20T04:13:36;96552.16;;;8.71;46.39
47080;BME280;33067;49.296;14.470;2023-12-20T04:16:02;96548.45;;;8.37;47.05
47080;BME280;33067;49.296;14.470;2023-12-20T04:18:27;96552.46;;;8.12;47.41
47080;BME280;33067;49.296;14.470;2023-12-20T04:20:53;96554.00;;;8.25;46.81
47080;BME280;33067;49.296;14.470;2023-12-20T04:23:18;96553.31;;;8.20;46.84
47080;BME280;33067;49.296;14.470;2023-12-20T04:25:43;96544.05;;;8.11;46.82
47080;BME280;33067;49.296;14.470;2023-12-20T04:28:09;96542.66;;;8.14;46.61
47080;BME280;33067;49.296;14.470;2023-12-20T04:30:34;96547.18;;;7.72;47.03
47080;BME280;33067;49.296;14.470;2023-12-20T04:32:59;96540.98;;;7.19;47.59
47080;BME280;33067;49.296;14.470;2023-12-20T04:35:25;96540.71;;;8.47;46.11
47080;BME280;33067;49.296;14.470;2023-12-20T04:37:50;96530.10;;;8.29;46.22
47080;BME280;33067;49.296;14.470;2023-12-20T04:40:16;96533.44;;;7.79;47.08
47080;BME280;33067;49.296;14.470;2023-12-20T04:42:41;96534.60;;;7.62;47.00
47080;BME280;33067;49.296;14.470;2023-12-20T04:45:07;96537.12;;;7.40;47.53
47080;BME280;33067;49.296;14.470;2023-12-20T04:47:32;96545.73;;;7.09;47.76
47080;BME280;33067;49.296;14.470;2023-12-20T04:49:58;96549.05;;;7.43;47.57
47080;BME280;33067;49.296;14.470;2023-12-20T04:52:23;96550.96;;;6.61;48.96
47080;BME280;33067;49.296;14.470;2023-12-20T04:54:49;96544.87;;;6.57;49.37
47080;BME280;33067;49.296;14.470;2023-12-20T04:57:14;96547.00;;;6.51;49.08
47080;BME280;33067;49.296;14.470;2023-12-20T04:59:40;96547.35;;;7.11;47.81
47080;BME280;33067;49.296;14.470;2023-12-20T05:02:05;96552.78;;;7.02;47.87
47080;BME280;33067;49.296;14.470;2023-12-20T05:04:31;96555.65;;;6.92;48.30
47080;BME280;33067;49.296;14.470;2023-12-20T05:06:57;96563.18;;;7.07;48.64
47080;BME280;33067;49.296;14.470;2023-12-20T05:09:21;96559.83;;;6.75;48.83
47080;BME280;33067;49.296;14.470;2023-12-20T05:11:47;96562.79;;;7.04;48.59
47080;BME280;33067;49.296;14.470;2023-12-20T05:14:13;96564.61;;;6.76;49.20
47080;BME280;33067;49.296;14.470;2023-12-20T05:16:38;96564.90;;;6.78;49.51
47080;BME280;33067;49.296;14.470;2023-12-20T05:19:03;96566.74;;;5.58;51.60
47080;BME280;33067;49.296;14.470;2023-12-20T05:21:29;96569.96;;;6.16;50.48
47080;BME280;33067;49.296;14.470;2023-12-20T05:23:54;96573.02;;;6.19;50.96
47080;BME280;33067;49.296;14.470;2023-12-20T05:26:20;96573.46;;;6.46;50.01
47080;BME280;33067;49.296;14.470;2023-12-20T05:28:45;96576.35;;;6.27;50.24
47080;BME280;33067;49.296;14.470;2023-12-20T05:31:11;96578.16;;;6.51;49.76
47080;BME280;33067;49.296;14.470;2023-12-20T05:33:37;96580.74;;;6.00;51.04
47080;BME280;33067;49.296;14.470;2023-12-20T05:36:03;96577.58;;;5.42;51.90
47080;BME280;33067;49.296;14.470;2023-12-20T05:38:27;96581.14;;;6.53;49.93
47080;BME280;33067;49.296;14.470;2023-12-20T05:40:53;96586.88;;;6.66;49.83
47080;BME280;33067;49.296;14.470;2023-12-20T05:43:18;96589.96;;;5.74;50.96
47080;BME280;33067;49.296;14.470;2023-12-20T05:45:44;96586.49;;;5.58;51.70
47080;BME280;33067;49.296;14.470;2023-12-20T05:48:09;96590.28;;;5.97;51.03
47080;BME280;33067;49.296;14.470;2023-12-20T05:50:35;96591.09;;;6.36;50.35
47080;BME280;33067;49.296;14.470;2023-12-20T05:53:00;96591.02;;;6.18;50.86
47080;BME280;33067;49.296;14.470;2023-12-20T05:55:26;96597.66;;;6.01;50.38
47080;BME280;33067;49.296;14.470;2023-12-20T05:57:51;96599.43;;;6.49;49.89
47080;BME280;33067;49.296;14.470;2023-12-20T06:00:17;96602.67;;;6.17;50.49
47080;BME280;33067;49.296;14.470;2023-12-20T06:02:43;96606.86;;;6.44;49.85
47080;BME280;33067;49.296;14.470;2023-12-20T06:05:08;96603.40;;;6.41;49.77
47080;BME280;33067;49.296;14.470;2023-12-20T06:07:33;96605.30;;;6.53;49.59
47080;BME280;33067;49.296;14.470;2023-12-20T06:09:59;96605.40;;;6.35;50.29
47080;BME280;33067;49.296;14.470;2023-12-20T06:12:24;96602.34;;;6.54;49.37
47080;BME280;33067;49.296;14.470;2023-12-20T06:14:49;96604.02;;;6.86;48.79
47080;BME280;33067;49.296;14.470;2023-12-20T06:17:15;96606.09;;;6.33;49.54
47080;BME280;33067;49.296;14.470;2023-12-20T06:19:40;96606.69;;;6.42;49.95
47080;BME280;33067;49.296;14.470;2023-12-20T06:22:06;96609.65;;;6.61;49.45
47080;BME280;33067;49.296;14.470;2023-12-20T06:24:31;96605.15;;;6.61;49.47
47080;BME280;33067;49.296;14.470;2023-12-20T06:26:57;96600.53;;;7.17;48.49
47080;BME280;33067;49.296;14.470;2023-12-20T06:29:22;96602.88;;;6.87;48.32
47080;BME280;33067;49.296;14.470;2023-12-20T06:31:48;96605.30;;;7.12;47.75
47080;BME280;33067;49.296;14.470;2023-12-20T06:34:14;96605.12;;;7.19;47.90
47080;BME280;33067;49.296;14.470;2023-12-20T06:36:39;96600.99;;;7.70;47.32
47080;BME280;33067;49.296;14.470;2023-12-20T06:39:04;96600.25;;;6.94;48.14
47080;BME280;33067;49.296;14.470;2023-12-20T06:41:30;96606.06;;;7.25;47.43
47080;BME280;33067;49.296;14.470;2023-12-20T06:43:55;96607.08;;;7.12;47.99
47080;BME280;33067;49.296;14.470;2023-12-20T06:46:21;96612.53;;;6.46;49.37
47080;BME280;33067;49.296;14.470;2023-12-20T06:48:47;96618.07;;;7.00;48.43
47080;BME280;33067;49.296;14.470;2023-12-20T06:51:13;96615.64;;;6.32;49.60
47080;BME280;33067;49.296;14.470;2023-12-20T06:53:37;96620.43;;;6.38;49.55
47080;BME280;33067;49.296;14.470;2023-12-20T06:56:04;96620.67;;;6.57;48.75
47080;BME280;33067;49.296;14.470;2023-12-20T06:58:28;96620.70;;;7.41;47.51
47080;BME280;33067;49.296;14.470;2023-12-20T07:00:54;96626.88;;;5.78;47.04
47080;BME280;33067;49.296;14.470;2023-12-20T07:03:19;96629.23;;;7.13;46.47
47080;BME280;33067;49.296;14.470;2023-12-20T07:05:45;96627.85;;;7.34;46.83
47080;BME280;33067;49.296;14.470;2023-12-20T07:08:10;96632.22;;;7.49;46.97
47080;BME280;33067;49.296;14.470;2023-12-20T07:10:36;96636.59;;;7.09;47.47
47080;BME280;33067;49.296;14.470;2023-12-20T07:13:01;96636.27;;;7.08;47.88
47080;BME280;33067;49.296;14.470;2023-12-20T07:15:27;96645.11;;;6.77;48.19
47080;BME280;33067;49.296;14.470;2023-12-20T07:17:52;96647.79;;;6.54;48.86
47080;BME280;33067;49.296;14.470;2023-12-20T07:20:18;96652.68;;;6.74;48.68
47080;BME280;33067;49.296;14.470;2023-12-20T07:22:43;96657.42;;;7.25;47.42
47080;BME280;33067;49.296;14.470;2023-12-20T07:25:09;96651.90;;;6.20;49.34
47080;BME280;33067;49.296;14.470;2023-12-20T07:27:34;96651.25;;;6.47;48.98
47080;BME280;33067;49.296;14.470;2023-12-20T07:30:00;96653.36;;;7.25;47.24
47080;BME280;33067;49.296;14.470;2023-12-20T07:32:25;96659.57;;;6.22;48.57
47080;BME280;33067;49.296;14.470;2023-12-20T07:34:51;96668.61;;;7.12;47.70
47080;BME280;33067;49.296;14.470;2023-12-20T07:37:16;96670.30;;;6.34;49.25
47080;BME280;33067;49.296;14.470;2023-12-20T07:39:42;96668.97;;;6.57;48.80
47080;BME280;33067;49.296;14.470;2023-12-20T07:42:08;96674.17;;;6.08;49.65
47080;BME280;33067;49.296;14.470;2023-12-20T07:44:33;96677.19;;;5.28;51.52
47080;BME280;33067;49.296;14.470;2023-12-20T07:46:58;96675.46;;;5.51;51.64
47080;BME280;33067;49.296;14.470;2023-12-20T07:49:24;96680.71;;;6.14;50.80
47080;BME280;33067;49.296;14.470;2023-12-20T07:51:49;96680.35;;;5.61;50.52
47080;BME280;33067;49.296;14.470;2023-12-20T07:54:15;96668.03;;;5.84;50.26
47080;BME280;33067;49.296;14.470;2023-12-20T07:56:40;96676.33;;;5.85;50.04
47080;BME280;33067;49.296;14.470;2023-12-20T07:59:06;96683.67;;;6.45;48.98
47080;BME280;33067;49.296;14.470;2023-12-20T08:01:31;96687.37;;;5.83;50.25
47080;BME280;33067;49.296;14.470;2023-12-20T08:03:56;96696.28;;;5.94;50.12
47080;BME280;33067;49.296;14.470;2023-12-20T08:06:22;96695.81;;;5.66;50.80
47080;BME280;33067;49.296;14.470;2023-12-20T08:08:48;96700.56;;;5.28;51.34
47080;BME280;33067;49.296;14.470;2023-12-20T08:11:13;96714.67;;;5.40;51.72
47080;BME280;33067;49.296;14.470;2023-12-20T08:13:38;96719.41;;;5.74;51.30
47080;BME280;33067;49.296;14.470;2023-12-20T08:16:04;96721.98;;;6.50;50.20
47080;BME280;33067;49.296;14.470;2023-12-20T08:18:29;96725.02;;;5.60;51.37
47080;BME280;33067;49.296;14.470;2023-12-20T08:20:55;96735.10;;;5.78;50.62
47080;BME280;33067;49.296;14.470;2023-12-20T08:23:20;96739.76;;;6.00;50.31
47080;BME280;33067;49.296;14.470;2023-12-20T08:25:46;96736.62;;;5.47;51.14
47080;BME280;33067;49.296;14.470;2023-12-20T08:28:12;96734.65;;;5.72;50.55
47080;BME280;33067;49.296;14.470;2023-12-20T08:30:37;96733.56;;;6.88;49.16
47080;BME280;33067;49.296;14.470;2023-12-20T08:33:03;96740.13;;;6.70;48.88
47080;BME280;33067;49.296;14.470;2023-12-20T08:35:28;96740.27;;;6.64;48.67
47080;BME280;33067;49.296;14.470;2023-12-20T08:37:53;96740.38;;;6.96;48.37
47080;BME280;33067;49.296;14.470;2023-12-20T08:40:19;96737.47;;;6.13;49.50
47080;BME280;33067;49.296;14.470;2023-12-20T08:42:44;96747.51;;;7.01;48.13
47080;BME280;33067;49.296;14.470;2023-12-20T08:45:10;96748.12;;;6.92;48.01
47080;BME280;33067;49.296;14.470;2023-12-20T08:47:35;96753.10;;;6.94;48.07
47080;BME280;33067;49.296;14.470;2023-12-20T08:50:02;96747.76;;;6.56;48.66
47080;BME280;33067;49.296;14.470;2023-12-20T08:52:26;96748.93;;;6.42;48.48
47080;BME280;33067;49.296;14.470;2023-12-20T08:54:52;96746.07;;;6.51;48.88
47080;BME280;33067;49.296;14.470;2023-12-20T08:57:18;96741.69;;;5.66;50.21
47080;BME280;33067;49.296;14.470;2023-12-20T08:59:43;96749.41;;;6.65;48.48
47080;BME280;33067;49.296;14.470;2023-12-20T09:02:09;96745.77;;;6.04;49.22
47080;BME280;33067;49.296;14.470;2023-12-20T09:04:34;96745.57;;;5.93;49.77
47080;BME280;33067;49.296;14.470;2023-12-20T09:07:00;96746.85;;;6.53;48.65
47080;BME280;33067;49.296;14.470;2023-12-20T09:09:25;96744.63;;;6.57;48.28
47080;BME280;33067;49.296;14.470;2023-12-20T09:11:51;96742.10;;;6.81;48.03
47080;BME280;33067;49.296;14.470;2023-12-20T09:14:16;96741.34;;;6.12;48.92
47080;BME280;33067;49.296;14.470;2023-12-20T09:16:41;96743.30;;;6.34;48.86
47080;BME280;33067;49.296;14.470;2023-12-20T09:19:07;96744.86;;;6.27;48.76
47080;BME280;33067;49.296;14.470;2023-12-20T09:21:33;96745.53;;;6.53;48.55
47080;BME280;33067;49.296;14.470;2023-12-20T09:23:58;96742.17;;;5.47;50.25
47080;BME280;33067;49.296;14.470;2023-12-20T09:26:24;96738.00;;;5.69;49.76
47080;BME280;33067;49.296;14.470;2023-12-20T09:28:49;96742.27;;;5.35;51.14
47080;BME280;33067;49.296;14.470;2023-12-20T09:31:15;96743.06;;;5.44;51.36
47080;BME280;33067;49.296;14.470;2023-12-20T09:33:40;96729.83;;;5.65;51.04
47080;BME280;33067;49.296;14.470;2023-12-20T09:36:06;96734.06;;;5.52;50.88
47080;BME280;33067;49.296;14.470;2023-12-20T09:38:31;96730.37;;;6.09;49.79
47080;BME280;33067;49.296;14.470;2023-12-20T09:40:57;96720.15;;;5.80;51.12
47080;BME280;33067;49.296;14.470;2023-12-20T09:43:24;96719.44;;;5.43;51.46
47080;BME280;33067;49.296;14.470;2023-12-20T09:45:48;96714.24;;;6.70;49.29
47080;BME280;33067;49.296;14.470;2023-12-20T09:48:13;96709.72;;;6.43;49.14
47080;BME280;33067;49.296;14.470;2023-12-20T09:50:39;96709.76;;;6.28;49.06
47080;BME280;33067;49.296;14.470;2023-12-20T09:53:05;96708.38;;;6.42;49.02
47080;BME280;33067;49.296;14.470;2023-12-20T09:55:30;96701.48;;;6.37;49.13
47080;BME280;33067;49.296;14.470;2023-12-20T09:57:55;96697.42;;;6.48;49.05
47080;BME280;33067;49.296;14.470;2023-12-20T10:00:21;96693.61;;;5.88;50.16
47080;BME280;33067;49.296;14.470;2023-12-20T10:02:53;96691.01;;;6.22;49.71
47080;BME280;33067;49.296;14.470;2023-12-20T10:05:16;96694.58;;;6.42;49.07
47080;BME280;33067;49.296;14.470;2023-12-20T10:07:37;96689.62;;;6.18;49.18
47080;BME280;33067;49.296;14.470;2023-12-20T10:10:03;96695.64;;;6.01;50.01
47080;BME280;33067;49.296;14.470;2023-12-20T10:12:28;96696.07;;;5.73;51.00
47080;BME280;33067;49.296;14.470;2023-12-20T10:14:54;96696.63;;;6.08;50.21
47080;BME280;33067;49.296;14.470;2023-12-20T10:17:21;96697.78;;;5.77;50.86
47080;BME280;33067;49.296;14.470;2023-12-20T10:19:45;96691.95;;;5.99;50.51
47080;BME280;33067;49.296;14.470;2023-12-20T10:22:10;96694.15;;;5.71;51.14
47080;BME280;33067;49.296;14.470;2023-12-20T10:24:36;96696.83;;;5.91;50.66
47080;BME280;33067;49.296;14.470;2023-12-20T10:27:02;96695.64;;;5.99;50.23
47080;BME280;33067;49.296;14.470;2023-12-20T10:29:27;96687.91;;;5.41;52.08
47080;BME280;33067;49.296;14.470;2023-12-20T10:31:52;96694.53;;;6.46;50.49
47080;BME280;33067;49.296;14.470;2023-12-20T10:34:18;96696.86;;;5.71;51.39
47080;BME280;33067;49.296;14.470;2023-12-20T10:36:45;96693.97;;;4.78;52.60
47080;BME280;33067;49.296;14.470;2023-12-20T10:39:10;96698.40;;;4.80;52.64
47080;BME280;33067;49.296;14.470;2023-12-20T10:41:34;96692.47;;;5.65;51.68
47080;BME280;33067;49.296;14.470;2023-12-20T10:44:01;96694.96;;;5.70;51.24
47080;BME280;33067;49.296;14.470;2023-12-20T10:46:26;96690.56;;;5.12;52.17
47080;BME280;33067;49.296;14.470;2023-12-20T10:48:51;96698.81;;;5.27;52.06
47080;BME280;33067;49.296;14.470;2023-12-20T10:51:18;96699.13;;;5.15;52.23
47080;BME280;33067;49.296;14.470;2023-12-20T10:53:42;96704.38;;;4.87;52.40
47080;BME280;33067;49.296;14.470;2023-12-20T10:56:08;96694.00;;;5.68;50.86
47080;BME280;33067;49.296;14.470;2023-12-20T10:58:33;96689.34;;;5.65;50.06
47080;BME280;33067;49.296;14.470;2023-12-20T11:01:00;96689.57;;;5.16;51.06
47080;BME280;33067;49.296;14.470;2023-12-20T11:03:25;96695.58;;;5.27;51.42
47080;BME280;33067;49.296;14.470;2023-12-20T11:05:53;96690.67;;;5.82;50.38
47080;BME280;33067;49.296;14.470;2023-12-20T11:08:19;96684.32;;;5.27;51.54
47080;BME280;33067;49.296;14.470;2023-12-20T11:10:46;96692.31;;;4.92;51.67
47080;BME280;33067;49.296;14.470;2023-12-20T11:13:10;96692.49;;;4.75;51.96
47080;BME280;33067;49.296;14.470;2023-12-20T11:15:31;96682.98;;;4.51;51.66
47080;BME280;33067;49.296;14.470;2023-12-20T11:17:57;96684.54;;;4.49;52.04
47080;BME280;33067;49.296;14.470;2023-12-20T11:20:23;96678.29;;;5.22;50.58
47080;BME280;33067;49.296;14.470;2023-12-20T11:22:54;96683.74;;;4.59;50.84
47080;BME280;33067;49.296;14.470;2023-12-20T11:25:13;96692.72;;;4.26;50.87
47080;BME280;33067;49.296;14.470;2023-12-20T11:27:41;96684.31;;;4.80;50.09
47080;BME280;33067;49.296;14.470;2023-12-20T11:30:05;96688.58;;;4.56;51.35
47080;BME280;33067;49.296;14.470;2023-12-20T11:32:30;96678.36;;;4.85;49.63
47080;BME280;33067;49.296;14.470;2023-12-20T11:34:56;96686.16;;;5.18;49.50
47080;BME280;33067;49.296;14.470;2023-12-20T11:37:21;96678.80;;;5.21;48.61
47080;BME280;33067;49.296;14.470;2023-12-20T11:39:54;96673.61;;;4.82;48.77
47080;BME280;33067;49.296;14.470;2023-12-20T11:42:12;96671.41;;;5.27;47.41
47080;BME280;33067;49.296;14.470;2023-12-20T11:44:37;96672.33;;;5.77;47.31
47080;BME280;33067;49.296;14.470;2023-12-20T11:47:03;96671.45;;;4.47;48.77
47080;BME280;33067;49.296;14.470;2023-12-20T11:49:28;96665.36;;;4.80;47.69
47080;BME280;33067;49.296;14.470;2023-12-20T11:51:54;96659.55;;;5.27;47.03
47080;BME280;33067;49.296;14.470;2023-12-20T11:54:19;96658.02;;;5.72;46.74
47080;BME280;33067;49.296;14.470;2023-12-20T11:56:45;96649.77;;;5.65;46.93
47080;BME280;33067;49.296;14.470;2023-12-20T11:59:10;96647.08;;;5.65;46.19
47080;BME280;33067;49.296;14.470;2023-12-20T12:01:35;96649.50;;;6.24;45.84
47080;BME280;33067;49.296;14.470;2023-12-20T12:04:04;96640.25;;;5.84;46.23
47080;BME280;33067;49.296;14.470;2023-12-20T12:06:26;96638.13;;;6.36;45.06
47080;BME280;33067;49.296;14.470;2023-12-20T12:08:51;96629.41;;;6.29;45.35
47080;BME280;33067;49.296;14.470;2023-12-20T12:11:17;96633.98;;;6.26;44.66
47080;BME280;33067;49.296;14.470;2023-12-20T12:13:42;96639.07;;;6.70;43.99
47080;BME280;33067;49.296;14.470;2023-12-20T12:16:08;96639.40;;;7.02;43.89
47080;BME280;33067;49.296;14.470;2023-12-20T12:18:33;96634.17;;;7.15;43.64
47080;BME280;33067;49.296;14.470;2023-12-20T12:21:02;96640.23;;;6.56;44.19
47080;BME280;33067;49.296;14.470;2023-12-20T12:23:24;96636.79;;;5.72;45.72
47080;BME280;33067;49.296;14.470;2023-12-20T12:25:50;96638.20;;;7.13;43.99
47080;BME280;33067;49.296;14.470;2023-12-20T12:28:16;96640.26;;;6.74;44.80
47080;BME280;33067;49.296;14.470;2023-12-20T12:30:40;96628.89;;;6.32;45.61
47080;BME280;33067;49.296;14.470;2023-12-20T12:33:06;96633.74;;;5.73;46.69
47080;BME280;33067;49.296;14.470;2023-12-20T12:35:31;96630.47;;;5.80;46.84
47080;BME280;33067;49.296;14.470;2023-12-20T12:37:59;96633.13;;;6.95;45.21
47080;BME280;33067;49.296;14.470;2023-12-20T12:40:23;96628.36;;;7.62;44.64
47080;BME280;33067;49.296;14.470;2023-12-20T12:42:48;96633.25;;;6.90;45.28
47080;BME280;33067;49.296;14.470;2023-12-20T12:45:14;96621.83;;;7.23;44.74
47080;BME280;33067;49.296;14.470;2023-12-20T12:47:39;96629.92;;;7.19;44.51
47080;BME280;33067;49.296;14.470;2023-12-20T12:50:05;96630.88;;;6.83;44.87
47080;BME280;33067;49.296;14.470;2023-12-20T12:52:30;96626.93;;;6.59;45.58